Time;durP1;ratioP1;P1;durP2;ratioP2;P2;SDS_P1;SDS_P2;PMS_P1;PMS_P2;Temp;Humidity;BMP_temperature;BMP_pressure;BME280_temperature;BME280_humidity;BME280_pressure;Samples;Min_cycle;Max_cycle;Signal;HPM_P1;HPM_P2
2022/08/31 00:04:42;;;;;;;9.90;6.47;;;;;;;;;;7327400;19;154242;-15
2022/08/31 00:07:17;;;;;;;13.45;6.55;;;;;;;;;;7325091;19;153677;-15
2022/08/31 00:09:51;;;;;;;10.90;6.93;;;;;;;;;;7329719;19;161950;-16
2022/08/31 00:12:23;;;;;;;12.35;7.18;;;;;;;;;;7332437;19;162420;-15
2022/08/31 00:14:55;;;;;;;12.60;7.18;;;;;;;;;;7334299;19;154587;-15
2022/08/31 00:17:29;;;;;;;14.07;7.15;;;;;;;;;;7332965;19;153743;-15
2022/08/31 00:20:00;;;;;;;9.90;6.32;;;;;;;;;;7333535;19;162020;-15
2022/08/31 00:22:36;;;;;;;14.45;6.60;;;;;;;;;;7333522;19;162359;-14
2022/08/31 00:25:08;;;;;;;10.50;6.72;;;;;;;;;;7334097;19;154186;-15
2022/08/31 00:27:40;;;;;;;10.55;6.88;;;;;;;;;;7331658;19;153700;-14
2022/08/31 00:30:14;;;;;;;11.87;6.70;;;;;;;;;;7333144;19;161919;-15
2022/08/31 00:32:46;;;;;;;11.80;6.60;;;;;;;;;;7333415;19;162484;-15
2022/08/31 00:35:25;;;;;;;9.10;6.45;;;;;;;;;;7333343;19;153998;-15
2022/08/31 00:37:59;;;;;;;7.60;6.32;;;;;;;;;;7333393;19;153595;-15
2022/08/31 00:40:31;;;;;;;9.20;6.18;;;;;;;;;;7332847;19;161965;-15
2022/08/31 00:43:03;;;;;;;9.23;5.93;;;;;;;;;;7331903;19;162535;-15
2022/08/31 00:45:35;;;;;;;10.18;6.35;;;;;;;;;;7333229;19;154519;-15
2022/08/31 00:48:06;;;;;;;11.93;5.70;;;;;;;;;;7329204;19;153588;-15
2022/08/31 00:50:40;;;;;;;13.75;6.78;;;;;;;;;;7333947;19;161696;-15
2022/08/31 00:53:19;;;;;;;9.48;6.72;;;;;;;;;;7335718;19;162605;-15
2022/08/31 00:55:52;;;;;;;11.65;6.30;;;;;;;;;;7334082;19;154144;-14
2022/08/31 00:58:34;;;;;;;8.70;6.90;;;;;;;;;;7335745;19;153548;-15
2022/08/31 01:01:10;;;;;;;9.68;6.35;;;;;;;;;;7335374;19;162142;-15
2022/08/31 01:03:44;;;;;;;10.52;6.53;;;;;;;;;;7335388;19;162493;-15
2022/08/31 01:06:16;;;;;;;12.52;6.22;;;;;;;;;;7335895;19;154239;-15
2022/08/31 01:08:50;;;;;;;12.87;7.47;;;;;;;;;;7335902;19;153633;-15
2022/08/31 01:11:23;;;;;;;11.95;6.65;;;;;;;;;;7335211;19;161587;-15
2022/08/31 01:13:54;;;;;;;11.70;6.53;;;;;;;;;;7335161;19;162404;-15
2022/08/31 01:16:29;;;;;;;8.02;5.63;;;;;;;;;;7334079;19;154047;-15
2022/08/31 01:19:02;;;;;;;9.38;5.60;;;;;;;;;;7334746;19;153808;-15
2022/08/31 01:21:40;;;;;;;9.75;5.55;;;;;;;;;;7333318;19;162091;-15
2022/08/31 01:24:19;;;;;;;13.32;6.15;;;;;;;;;;7334679;19;162786;-16
2022/08/31 01:26:50;;;;;;;10.43;5.55;;;;;;;;;;7332580;19;153861;-15
2022/08/31 01:29:22;;;;;;;10.07;6.25;;;;;;;;;;7334928;19;154400;-15
2022/08/31 01:31:53;;;;;;;8.95;6.35;;;;;;;;;;7333495;19;161778;-15
2022/08/31 01:34:25;;;;;;;8.40;6.03;;;;;;;;;;7333546;19;163714;-15
2022/08/31 01:36:57;;;;;;;8.40;5.78;;;;;;;;;;7334155;19;154221;-15
2022/08/31 01:39:31;;;;;;;8.98;6.05;;;;;;;;;;7333498;19;153607;-15
2022/08/31 01:42:02;;;;;;;8.90;6.15;;;;;;;;;;7333290;19;161932;-15
2022/08/31 01:44:34;;;;;;;8.70;5.97;;;;;;;;;;7334166;19;164610;-15
2022/08/31 01:47:05;;;;;;;7.07;5.70;;;;;;;;;;7333650;19;153975;-15
2022/08/31 01:49:37;;;;;;;;;;;;;;;;;;7334390;19;153782;-15
2022/08/31 01:52:09;;;;;;;6.65;5.35;;;;;;;;;;7334226;19;161864;-16
2022/08/31 01:54:44;;;;;;;9.93;5.55;;;;;;;;;;7332811;19;162528;-16
2022/08/31 01:57:16;;;;;;;9.10;6.07;;;;;;;;;;7334858;19;154506;-16
2022/08/31 02:00:12;;;;;;;8.98;6.18;;;;;;;;;;7333255;19;153666;-16
2022/08/31 02:02:48;;;;;;;7.43;4.97;;;;;;;;;;7332474;19;162029;-16
2022/08/31 02:05:19;;;;;;;7.10;5.57;;;;;;;;;;7332324;19;162570;-15
2022/08/31 02:07:51;;;;;;;9.02;5.78;;;;;;;;;;7332161;19;154024;-15
2022/08/31 02:10:25;;;;;;;7.45;5.90;;;;;;;;;;7333880;19;153696;-16
2022/08/31 02:12:56;;;;;;;8.60;5.78;;;;;;;;;;7332703;19;162128;-16
2022/08/31 02:15:34;;;;;;;9.85;5.95;;;;;;;;;;7332230;19;162476;-16
2022/08/31 02:18:05;;;;;;;9.20;5.93;;;;;;;;;;7331491;19;155279;-16
2022/08/31 02:20:36;;;;;;;9.25;5.78;;;;;;;;;;7334163;19;153983;-15
2022/08/31 02:23:08;;;;;;;8.82;5.97;;;;;;;;;;7332220;19;161955;-15
2022/08/31 02:25:41;;;;;;;9.30;5.70;;;;;;;;;;7332053;19;162403;-15
2022/08/31 02:28:17;;;;;;;9.65;5.70;;;;;;;;;;7331438;19;154047;-15
2022/08/31 02:30:48;;;;;;;9.27;5.38;;;;;;;;;;7330015;19;153511;-16
2022/08/31 02:33:20;;;;;;;8.10;5.72;;;;;;;;;;7326878;19;162097;-16
2022/08/31 02:35:51;;;;;;;9.90;6.40;;;;;;;;;;7328803;19;162644;-15
2022/08/31 02:38:25;;;;;;;10.82;5.68;;;;;;;;;;7329055;19;154369;-16
2022/08/31 02:40:58;;;;;;;10.80;5.30;;;;;;;;;;7328701;19;153626;-15
2022/08/31 02:43:30;;;;;;;10.32;5.25;;;;;;;;;;7328304;19;161996;-15
2022/08/31 02:46:01;;;;;;;8.07;5.65;;;;;;;;;;7328084;19;162530;-15
2022/08/31 02:48:38;;;;;;;9.60;5.80;;;;;;;;;;7326945;19;154079;-15
2022/08/31 02:51:11;;;;;;;;;;;;;;;;;;7329247;19;153706;-16
2022/08/31 02:53:44;;;;;;;7.45;5.47;;;;;;;;;;7328400;19;162468;-16
2022/08/31 02:56:18;;;;;;;6.78;5.35;;;;;;;;;;7326012;19;162683;-15
2022/08/31 02:58:53;;;;;;;7.00;5.32;;;;;;;;;;7329803;19;154011;-16
2022/08/31 03:01:27;;;;;;;7.70;5.50;;;;;;;;;;7328007;19;153631;-15
2022/08/31 03:03:59;;;;;;;10.52;5.88;;;;;;;;;;7327870;19;161827;-15
2022/08/31 03:06:31;;;;;;;7.40;5.28;;;;;;;;;;7328834;19;162982;-15
2022/08/31 03:09:04;;;;;;;7.90;5.70;;;;;;;;;;7326109;19;154676;-15
2022/08/31 03:11:38;;;;;;;8.32;5.38;;;;;;;;;;7329204;19;153541;-15
2022/08/31 03:14:12;;;;;;;6.97;5.50;;;;;;;;;;7327417;19;161842;-16
2022/08/31 03:16:44;;;;;;;8.25;4.93;;;;;;;;;;7327614;19;162373;-15
2022/08/31 03:19:16;;;;;;;7.20;5.68;;;;;;;;;;7327860;19;154139;-16
2022/08/31 03:21:48;;;;;;;6.57;5.60;;;;;;;;;;7329349;19;153742;-15
2022/08/31 03:24:20;;;;;;;7.05;4.75;;;;;;;;;;7327278;19;162003;-16
2022/08/31 03:26:53;;;;;;;6.07;5.43;;;;;;;;;;7326989;19;162679;-15
2022/08/31 03:29:24;;;;;;;6.40;5.18;;;;;;;;;;7325371;19;154372;-14
2022/08/31 03:31:56;;;;;;;7.55;5.88;;;;;;;;;;7328412;19;153973;-14
2022/08/31 03:34:28;;;;;;;7.85;5.30;;;;;;;;;;7326950;19;161831;-14
2022/08/31 03:37:00;;;;;;;7.28;5.22;;;;;;;;;;7326460;19;162745;-14
2022/08/31 03:39:31;;;;;;;7.88;5.35;;;;;;;;;;7327099;19;154150;-14
2022/08/31 03:42:05;;;;;;;7.22;5.43;;;;;;;;;;7326966;19;153603;-14
2022/08/31 03:44:40;;;;;;;7.78;5.10;;;;;;;;;;7329013;19;162000;-14
2022/08/31 03:47:18;;;;;;;8.50;5.07;;;;;;;;;;7333212;19;162624;-14
2022/08/31 03:49:49;;;;;;;7.57;5.18;;;;;;;;;;7331889;19;154119;-14
2022/08/31 03:52:37;;;;;;;7.68;5.75;;;;;;;;;;7333636;19;153558;-15
2022/08/31 03:55:16;;;;;;;7.80;4.75;;;;;;;;;;7331999;19;161981;-15
2022/08/31 03:57:50;;;;;;;5.75;4.72;;;;;;;;;;7332903;19;162348;-15
2022/08/31 04:00:24;;;;;;;5.72;5.13;;;;;;;;;;7333287;19;154164;-15
2022/08/31 04:03:02;;;;;;;6.88;5.60;;;;;;;;;;7333160;19;153770;-15
2022/08/31 04:05:36;;;;;;;6.45;5.35;;;;;;;;;;7334084;19;161796;-14
2022/08/31 04:08:25;;;;;;;6.30;4.95;;;;;;;;;;7333555;19;162615;-15
2022/08/31 04:11:21;;;;;;;5.00;4.30;;;;;;;;;;7334289;19;154359;-15
2022/08/31 04:14:13;;;;;;;8.70;5.20;;;;;;;;;;7334376;19;153635;-15
2022/08/31 04:17:03;;;;;;;7.53;5.32;;;;;;;;;;7333689;19;161970;-15
2022/08/31 04:19:43;;;;;;;5.90;4.40;;;;;;;;;;7332522;19;162615;-15
2022/08/31 04:22:28;;;;;;;6.35;4.72;;;;;;;;;;7332785;19;154127;-15
2022/08/31 04:25:18;;;;;;;6.55;5.00;;;;;;;;;;7333782;19;153726;-14
2022/08/31 04:27:49;;;;;;;7.28;4.80;;;;;;;;;;7332797;19;161860;-14
2022/08/31 04:30:23;;;;;;;7.22;5.20;;;;;;;;;;7330121;19;162414;-14
2022/08/31 04:32:55;;;;;;;7.20;5.05;;;;;;;;;;7333553;19;154080;-15
2022/08/31 04:35:27;;;;;;;5.85;4.55;;;;;;;;;;7332248;19;153812;-14
2022/08/31 04:37:58;;;;;;;6.80;4.90;;;;;;;;;;7331977;19;162144;-15
2022/08/31 04:40:30;;;;;;;6.57;4.85;;;;;;;;;;7331668;19;162591;-17
2022/08/31 04:43:04;;;;;;;8.00;5.47;;;;;;;;;;7332017;19;153984;-14
2022/08/31 04:45:42;;;;;;;7.15;4.95;;;;;;;;;;7331930;19;153682;-14
2022/08/31 04:48:13;;;;;;;7.63;4.97;;;;;;;;;;7331621;19;162155;-14
2022/08/31 04:50:49;;;;;;;6.03;4.60;;;;;;;;;;7329364;19;162748;-15
2022/08/31 04:53:23;;;;;;;6.20;4.90;;;;;;;;;;7332054;19;154154;-15
2022/08/31 04:55:55;;;;;;;6.07;5.10;;;;;;;;;;7329324;19;153578;-15
2022/08/31 04:58:26;;;;;;;6.67;4.67;;;;;;;;;;7331555;19;161906;-15
2022/08/31 05:01:00;;;;;;;6.95;4.90;;;;;;;;;;7331245;19;162723;-15
2022/08/31 05:03:52;;;;;;;8.30;4.90;;;;;;;;;;7330401;19;154431;-15
2022/08/31 05:06:25;;;;;;;6.70;4.93;;;;;;;;;;7332854;19;153545;-15
2022/08/31 05:08:58;;;;;;;6.72;5.15;;;;;;;;;;7331075;19;161878;-15
2022/08/31 05:11:34;;;;;;;9.55;5.20;;;;;;;;;;7330892;19;162611;-15
2022/08/31 05:14:07;;;;;;;6.57;5.45;;;;;;;;;;7332607;19;154049;-15
2022/08/31 05:16:45;;;;;;;7.80;4.85;;;;;;;;;;7331271;19;153551;-15
2022/08/31 05:19:16;;;;;;;5.95;4.85;;;;;;;;;;7330737;19;161589;-15
2022/08/31 05:21:48;;;;;;;6.93;5.43;;;;;;;;;;7334062;19;162410;-15
2022/08/31 05:24:24;;;;;;;8.45;5.80;;;;;;;;;;7330818;19;154404;-15
2022/08/31 05:26:59;;;;;;;9.33;6.07;;;;;;;;;;7332117;19;153713;-15
2022/08/31 05:29:31;;;;;;;11.27;6.60;;;;;;;;;;7329744;19;161858;-15
2022/08/31 05:32:28;;;;;;;10.83;6.30;;;;;;;;;;7331616;19;162466;-15
2022/08/31 05:35:06;;;;;;;12.52;7.13;;;;;;;;;;7328477;19;154680;-15
2022/08/31 05:37:38;;;;;;;11.05;6.78;;;;;;;;;;7328696;19;153926;-15
2022/08/31 05:40:12;;;;;;;11.32;7.15;;;;;;;;;;7328138;19;161833;-15
2022/08/31 05:42:44;;;;;;;13.95;6.65;;;;;;;;;;7331533;19;162745;-15
2022/08/31 05:45:17;;;;;;;11.10;6.80;;;;;;;;;;7331471;19;154084;-15
2022/08/31 05:47:53;;;;;;;13.80;6.97;;;;;;;;;;7331380;19;153669;-15
2022/08/31 05:50:27;;;;;;;12.68;7.72;;;;;;;;;;7329877;19;162555;-15
2022/08/31 05:52:59;;;;;;;8.77;6.75;;;;;;;;;;7330516;19;162451;-15
2022/08/31 05:55:30;;;;;;;13.60;8.20;;;;;;;;;;7327608;19;154329;-15
2022/08/31 05:58:01;;;;;;;13.82;7.15;;;;;;;;;;7328252;19;153647;-15
2022/08/31 06:00:33;;;;;;;11.50;7.70;;;;;;;;;;7327808;19;161923;-15
2022/08/31 06:03:36;;;;;;;11.48;8.20;;;;;;;;;;7326988;19;132552;-15
2022/08/31 06:06:08;;;;;;;10.98;7.28;;;;;;;;;;7327554;19;154120;-15
2022/08/31 06:08:39;;;;;;;14.80;7.72;;;;;;;;;;7326277;19;154528;-15
2022/08/31 06:11:18;;;;;;;14.50;7.60;;;;;;;;;;7325749;19;162213;-15
2022/08/31 06:13:52;;;;;;;13.60;7.63;;;;;;;;;;7329263;19;162394;-15
2022/08/31 06:16:24;;;;;;;15.65;8.05;;;;;;;;;;7330629;19;154208;-15
2022/08/31 06:19:02;;;;;;;15.10;8.47;;;;;;;;;;7329359;19;153708;-15
2022/08/31 06:21:35;;;;;;;21.05;8.45;;;;;;;;;;7328750;19;161828;-15
2022/08/31 06:24:08;;;;;;;;;;;;;;;;;;7330665;19;162532;-16
2022/08/31 06:26:41;;;;;;;17.40;9.38;;;;;;;;;;7329474;19;153874;-15
2022/08/31 06:29:20;;;;;;;16.15;8.63;;;;;;;;;;7329136;19;153372;-15
2022/08/31 06:31:51;;;;;;;16.95;9.32;;;;;;;;;;7327251;19;161778;-15
2022/08/31 06:34:27;;;;;;;18.05;9.63;;;;;;;;;;7328991;19;162605;-15
2022/08/31 06:37:22;;;;;;;17.15;10.00;;;;;;;;;;7329574;19;154216;-14
2022/08/31 06:40:28;;;;;;;21.33;9.85;;;;;;;;;;7327911;19;153631;-16
2022/08/31 06:43:20;;;;;;;19.48;10.25;;;;;;;;;;7329522;19;165811;-15
2022/08/31 06:46:04;;;;;;;17.08;9.82;;;;;;;;;;7328153;19;162478;-14
2022/08/31 06:48:35;;;;;;;19.20;10.27;;;;;;;;;;7329896;19;154017;-15
2022/08/31 06:51:11;;;;;;;18.30;10.10;;;;;;;;;;7327116;19;153676;-15
2022/08/31 06:53:44;;;;;;;17.52;10.60;;;;;;;;;;7328135;19;162142;-15
2022/08/31 06:56:37;;;;;;;20.80;10.50;;;;;;;;;;7326946;19;163107;-15
2022/08/31 06:59:46;;;;;;;17.75;9.60;;;;;;;;;;7326267;19;154293;-15
2022/08/31 07:02:33;;;;;;;13.80;9.45;;;;;;;;;;7326510;19;153387;-15
2022/08/31 07:05:04;;;;;;;17.50;10.02;;;;;;;;;;7327746;19;161760;-16
2022/08/31 07:07:38;;;;;;;18.55;10.25;;;;;;;;;;7329207;19;162501;-15
2022/08/31 07:10:10;;;;;;;18.80;10.27;;;;;;;;;;7329006;19;154445;-15
2022/08/31 07:12:42;;;;;;;13.82;8.40;;;;;;;;;;7327821;19;153859;-15
2022/08/31 07:15:13;;;;;;;19.38;10.35;;;;;;;;;;7327722;19;161851;-15
2022/08/31 07:17:44;;;;;;;16.77;7.75;;;;;;;;;;7328098;19;162335;-15
2022/08/31 07:20:16;;;;;;;20.83;9.10;;;;;;;;;;7334563;19;154287;-15
2022/08/31 07:22:52;;;;;;;18.88;9.60;;;;;;;;;;7334514;19;153533;-15
2022/08/31 07:25:40;;;;;;;25.55;9.95;;;;;;;;;;7333991;19;161998;-15
2022/08/31 07:28:12;;;;;;;16.73;9.50;;;;;;;;;;7333879;19;162361;-15
2022/08/31 07:30:44;;;;;;;18.08;9.32;;;;;;;;;;7334254;19;154030;-15
2022/08/31 07:33:18;;;;;;;19.63;9.32;;;;;;;;;;7334011;19;153653;-15
2022/08/31 07:35:58;;;;;;;17.80;8.13;;;;;;;;;;7333562;19;161860;-15
2022/08/31 07:44:27;;;;;;;12.80;7.93;;;;;;;;;;7333472;19;153698;-15
2022/08/31 07:46:59;;;;;;;15.25;8.63;;;;;;;;;;7333179;19;161939;-15
2022/08/31 07:49:30;;;;;;;13.65;7.78;;;;;;;;;;7333071;19;162377;-15
2022/08/31 07:52:11;;;;;;;17.08;8.38;;;;;;;;;;7333459;19;154078;-16
2022/08/31 07:55:16;;;;;;;18.92;8.95;;;;;;;;;;7333078;19;153909;-16
2022/08/31 07:58:02;;;;;;;21.83;10.27;;;;;;;;;;7334291;19;161912;-14
2022/08/31 08:00:34;;;;;;;17.13;8.07;;;;;;;;;;7332633;19;162398;-14
2022/08/31 08:03:11;;;;;;;;;;;;;;;;;;7334999;19;154260;-15
2022/08/31 08:06:11;;;;;;;12.75;8.43;;;;;;;;;;7333124;19;153521;-14
2022/08/31 08:09:06;;;;;;;15.80;8.65;;;;;;;;;;7333740;19;161813;-14
2022/08/31 08:12:08;;;;;;;16.25;8.73;;;;;;;;;;7331705;19;162555;-14
2022/08/31 08:14:59;;;;;;;;;;;;;;;;;;7334697;19;153996;-14
2022/08/31 08:17:52;;;;;;;14.70;8.40;;;;;;;;;;7332233;19;155328;-15
2022/08/31 08:20:30;;;;;;;14.23;7.90;;;;;;;;;;7333383;19;162850;-14
2022/08/31 08:23:01;;;;;;;20.33;8.73;;;;;;;;;;7332225;19;162469;-14
2022/08/31 08:25:35;;;;;;;13.00;7.93;;;;;;;;;;7333812;19;153785;-14
2022/08/31 08:28:28;;;;;;;15.50;9.23;;;;;;;;;;7332345;19;154315;-14
2022/08/31 08:31:12;;;;;;;15.30;9.18;;;;;;;;;;7329948;19;162069;-14
2022/08/31 08:33:44;;;;;;;12.63;8.20;;;;;;;;;;7334490;19;162543;-15
2022/08/31 08:36:18;;;;;;;11.70;7.60;;;;;;;;;;7332097;19;154006;-15
2022/08/31 08:38:52;;;;;;;12.93;7.53;;;;;;;;;;7332013;19;153380;-14
2022/08/31 08:41:30;;;;;;;10.75;7.60;;;;;;;;;;7331451;19;161734;-14
2022/08/31 08:44:06;;;;;;;18.33;7.65;;;;;;;;;;7331456;19;162672;-14
2022/08/31 08:46:47;;;;;;;13.98;7.85;;;;;;;;;;7331847;19;154223;-13
2022/08/31 08:49:24;;;;;;;16.90;7.25;;;;;;;;;;7331753;19;153734;-14
2022/08/31 08:52:02;;;;;;;14.77;7.05;;;;;;;;;;7330893;19;161922;-15
2022/08/31 08:54:37;;;;;;;17.23;8.70;;;;;;;;;;7331285;19;162829;-15
2022/08/31 08:57:13;;;;;;;13.82;8.85;;;;;;;;;;7329147;19;154109;-15
2022/08/31 08:59:49;;;;;;;16.55;8.15;;;;;;;;;;7331525;19;153915;-15
2022/08/31 09:02:24;;;;;;;13.55;7.47;;;;;;;;;;7331133;19;161903;-14
2022/08/31 09:05:23;;;;;;;14.05;8.13;;;;;;;;;;7331096;19;162695;-15
2022/08/31 09:08:41;;;;;;;15.18;8.15;;;;;;;;;;7331311;19;154240;-14
2022/08/31 09:11:22;;;;;;;14.40;7.28;;;;;;;;;;7329756;19;153681;-14
2022/08/31 09:14:04;;;;;;;16.40;8.70;;;;;;;;;;7331710;19;161875;-14
2022/08/31 09:16:47;;;;;;;15.23;8.02;;;;;;;;;;7330379;19;162342;-15
2022/08/31 09:19:21;;;;;;;13.98;9.00;;;;;;;;;;7330678;19;154069;-14
2022/08/31 09:21:56;;;;;;;14.82;8.32;;;;;;;;;;7330553;19;153521;-14
2022/08/31 09:24:29;;;;;;;13.70;8.52;;;;;;;;;;7330120;19;161764;-14
2022/08/31 09:27:25;;;;;;;15.82;8.68;;;;;;;;;;7331316;19;162446;-15
2022/08/31 09:30:02;;;;;;;12.52;8.80;;;;;;;;;;7331658;19;154423;-14
2022/08/31 09:32:37;;;;;;;12.50;7.90;;;;;;;;;;7330802;19;153540;-15
2022/08/31 09:35:13;;;;;;;14.65;8.18;;;;;;;;;;7331210;19;162334;-15
2022/08/31 09:37:46;;;;;;;11.77;8.23;;;;;;;;;;7331102;19;162598;-15
2022/08/31 09:40:22;;;;;;;12.75;8.10;;;;;;;;;;7331361;19;154183;-14
2022/08/31 09:43:05;;;;;;;15.02;8.35;;;;;;;;;;7331050;19;153844;-14
2022/08/31 09:45:37;;;;;;;16.52;7.97;;;;;;;;;;7330881;19;162162;-14
2022/08/31 09:48:14;;;;;;;14.60;8.13;;;;;;;;;;7330845;19;162604;-14
2022/08/31 09:50:47;;;;;;;14.25;8.75;;;;;;;;;;7330393;19;154401;-14
2022/08/31 09:56:12;;;;;;;16.02;7.95;;;;;;;;;;7328957;19;161815;-14
2022/08/31 09:58:46;;;;;;;16.35;9.50;;;;;;;;;;7330599;19;162489;-15
2022/08/31 10:01:22;;;;;;;15.05;8.95;;;;;;;;;;7330681;19;154131;-14
2022/08/31 10:04:17;;;;;;;18.48;8.52;;;;;;;;;;7330681;19;153677;-14
2022/08/31 10:06:58;;;;;;;17.85;8.63;;;;;;;;;;7329975;19;162652;-15
2022/08/31 10:09:36;;;;;;;15.07;9.73;;;;;;;;;;7330245;19;162598;-14
2022/08/31 10:12:11;;;;;;;16.60;8.98;;;;;;;;;;7329349;19;154018;-15
2022/08/31 10:14:49;;;;;;;18.65;8.70;;;;;;;;;;7327731;19;153520;-15
2022/08/31 10:17:28;;;;;;;14.57;9.25;;;;;;;;;;7329954;19;162222;-14
2022/08/31 10:20:07;;;;;;;15.02;9.35;;;;;;;;;;7329571;19;162307;-14
2022/08/31 10:22:43;;;;;;;19.23;9.18;;;;;;;;;;7330019;19;154089;-14
2022/08/31 10:25:25;;;;;;;13.35;8.80;;;;;;;;;;7329855;19;153710;-15
2022/08/31 10:28:11;;;;;;;12.75;8.02;;;;;;;;;;7328109;19;161978;-14
2022/08/31 10:30:46;;;;;;;17.63;9.63;;;;;;;;;;7329590;19;162602;-14
2022/08/31 10:33:24;;;;;;;17.58;8.80;;;;;;;;;;7330619;19;154305;-14
2022/08/31 10:36:02;;;;;;;16.85;8.95;;;;;;;;;;7329601;19;153861;-14
2022/08/31 10:38:38;;;;;;;21.45;10.63;;;;;;;;;;7329451;19;161814;-14
2022/08/31 10:41:14;;;;;;;15.63;9.20;;;;;;;;;;7329228;19;162370;-14
2022/08/31 10:43:52;;;;;;;17.10;9.57;;;;;;;;;;7329794;19;154625;-15
2022/08/31 10:46:23;;;;;;;14.85;9.38;;;;;;;;;;7329476;19;153827;-14
2022/08/31 10:48:55;;;;;;;13.75;9.00;;;;;;;;;;7329123;19;161583;-14
2022/08/31 10:51:38;;;;;;;16.98;8.88;;;;;;;;;;7328714;19;162397;-14
2022/08/31 10:54:26;;;;;;;15.77;9.40;;;;;;;;;;7325927;19;153922;-14
2022/08/31 10:57:07;;;;;;;18.33;8.40;;;;;;;;;;7326555;19;153676;-15
2022/08/31 10:59:45;;;;;;;13.48;8.45;;;;;;;;;;7328654;19;161839;-14
2022/08/31 11:02:47;;;;;;;12.55;8.32;;;;;;;;;;7328492;19;162723;-14
2022/08/31 11:05:31;;;;;;;14.15;8.57;;;;;;;;;;7328989;19;154022;-14
2022/08/31 11:08:21;;;;;;;15.80;8.75;;;;;;;;;;7328831;19;153644;-15
2022/08/31 11:10:54;;;;;;;17.88;9.50;;;;;;;;;;7328717;19;161929;-14
2022/08/31 11:13:59;;;;;;;17.80;9.13;;;;;;;;;;7327651;19;162427;-15
2022/08/31 11:16:42;;;;;;;21.38;9.75;;;;;;;;;;7328328;19;153727;-14
2022/08/31 11:19:37;;;;;;;15.73;8.77;;;;;;;;;;7328495;19;153374;-14
2022/08/31 11:22:42;;;;;;;16.48;9.20;;;;;;;;;;7327957;19;162022;-14
2022/08/31 11:25:29;;;;;;;16.90;9.43;;;;;;;;;;7328128;19;162354;-15
2022/08/31 11:28:06;;;;;;;21.15;10.05;;;;;;;;;;7328322;19;154157;-14
2022/08/31 11:30:45;;;;;;;13.55;8.50;;;;;;;;;;7328170;19;153610;-15
2022/08/31 11:33:20;;;;;;;16.85;9.52;;;;;;;;;;7327605;19;161830;-14
2022/08/31 11:36:04;;;;;;;15.30;8.88;;;;;;;;;;7326507;19;162506;-14
2022/08/31 11:39:15;;;;;;;13.43;7.85;;;;;;;;;;7327225;19;154454;-14
2022/08/31 11:41:50;;;;;;;19.95;8.50;;;;;;;;;;7328185;19;153556;-14
2022/08/31 11:44:46;;;;;;;16.20;8.25;;;;;;;;;;7327046;19;162503;-15
2022/08/31 11:47:36;;;;;;;16.42;8.57;;;;;;;;;;7326997;19;162632;-15
2022/08/31 11:50:29;;;;;;;13.73;8.57;;;;;;;;;;7327783;19;154381;-14
2022/08/31 11:53:18;;;;;;;13.35;8.27;;;;;;;;;;7325816;19;153558;-15
2022/08/31 11:55:52;;;;;;;13.50;8.73;;;;;;;;;;7324699;19;161898;-15
2022/08/31 11:58:32;;;;;;;15.50;8.95;;;;;;;;;;7326918;19;162570;-14
2022/08/31 12:01:08;;;;;;;16.38;7.95;;;;;;;;;;7327298;19;154092;-15
2022/08/31 12:04:02;;;;;;;14.18;8.35;;;;;;;;;;7327326;19;153691;-14
2022/08/31 12:07:09;;;;;;;14.35;8.23;;;;;;;;;;7331731;19;162213;-15
2022/08/31 12:10:08;;;;;;;15.68;8.45;;;;;;;;;;7333764;19;162544;-14
2022/08/31 12:13:08;;;;;;;17.40;8.27;;;;;;;;;;7332915;19;154133;-14
2022/08/31 12:16:00;;;;;;;14.40;8.30;;;;;;;;;;7331790;19;153763;-14
2022/08/31 12:18:46;;;;;;;17.73;8.63;;;;;;;;;;7333652;19;161862;-14
2022/08/31 12:24:25;;;;;;;17.13;7.55;;;;;;;;;;7333649;19;154418;-14
2022/08/31 12:27:21;;;;;;;20.13;8.27;;;;;;;;;;7333456;19;153544;-14
2022/08/31 12:29:53;;;;;;;12.70;7.30;;;;;;;;;;7332836;19;161850;-13
2022/08/31 12:32:30;;;;;;;13.68;7.78;;;;;;;;;;7337660;19;162512;-14
2022/08/31 12:35:13;;;;;;;13.80;7.30;;;;;;;;;;7332133;19;154147;-14
2022/08/31 12:37:47;;;;;;;10.07;6.28;;;;;;;;;;7333236;19;153556;-14
2022/08/31 12:40:21;;;;;;;14.13;7.22;;;;;;;;;;7332986;19;162115;-14
2022/08/31 12:42:59;;;;;;;11.77;7.07;;;;;;;;;;7332926;19;162596;-14
2022/08/31 12:46:00;;;;;;;12.45;6.97;;;;;;;;;;7333235;19;154042;-14
2022/08/31 12:49:10;;;;;;;15.27;7.18;;;;;;;;;;7333058;19;153505;-14
2022/08/31 12:51:48;;;;;;;10.02;5.97;;;;;;;;;;7332486;19;161988;-13
2022/08/31 12:54:40;;;;;;;13.93;6.68;;;;;;;;;;7330862;19;162608;-14
2022/08/31 12:57:17;;;;;;;9.35;5.82;;;;;;;;;;7330145;19;154179;-14
2022/08/31 12:59:55;;;;;;;10.63;6.30;;;;;;;;;;7332902;19;154020;-16
2022/08/31 13:02:33;;;;;;;13.63;6.65;;;;;;;;;;7332105;19;161755;-14
2022/08/31 13:05:17;;;;;;;10.93;5.95;;;;;;;;;;7332009;19;162238;-14
2022/08/31 13:07:48;;;;;;;14.90;6.97;;;;;;;;;;7332238;19;154081;-14
2022/08/31 13:10:28;;;;;;;10.85;6.80;;;;;;;;;;7332090;19;153550;-14
2022/08/31 13:13:02;;;;;;;11.48;6.32;;;;;;;;;;7331822;19;162059;-14
2022/08/31 13:15:36;;;;;;;12.20;6.20;;;;;;;;;;7330068;19;162345;-14
2022/08/31 13:18:12;;;;;;;10.57;5.72;;;;;;;;;;7331732;19;153999;-15
2022/08/31 13:20:46;;;;;;;12.55;6.75;;;;;;;;;;7334021;19;153612;-14
2022/08/31 13:23:28;;;;;;;12.68;5.72;;;;;;;;;;7331584;19;162039;-15
2022/08/31 13:26:04;;;;;;;12.70;5.43;;;;;;;;;;7331776;19;162643;-14
2022/08/31 13:28:35;;;;;;;9.02;5.95;;;;;;;;;;7332252;19;154240;-14
2022/08/31 13:31:08;;;;;;;10.05;5.75;;;;;;;;;;7330665;19;154279;-14
2022/08/31 13:33:41;;;;;;;10.32;5.25;;;;;;;;;;7334214;19;161658;-14
2022/08/31 13:36:30;;;;;;;;;;;;;;;;;;7330217;19;162526;-14
2022/08/31 13:39:04;;;;;;;12.07;5.60;;;;;;;;;;7331886;19;154157;-15
2022/08/31 13:41:37;;;;;;;9.55;5.25;;;;;;;;;;7331788;19;153532;-15
2022/08/31 13:44:12;;;;;;;14.02;5.70;;;;;;;;;;7331109;19;162000;-14
2022/08/31 13:46:58;;;;;;;11.43;5.68;;;;;;;;;;7332351;19;162257;-15
2022/08/31 13:49:34;;;;;;;16.00;5.38;;;;;;;;;;7331545;19;154283;-14
2022/08/31 13:52:16;;;;;;;13.25;5.55;;;;;;;;;;7331495;19;153827;-15
2022/08/31 13:55:00;;;;;;;14.40;5.43;;;;;;;;;;7330992;19;161515;-14
2022/08/31 13:57:34;;;;;;;11.80;5.45;;;;;;;;;;7330830;19;162455;-15
2022/08/31 14:00:25;;;;;;;9.13;5.38;;;;;;;;;;7331474;19;153832;-15
2022/08/31 14:03:00;;;;;;;9.38;4.65;;;;;;;;;;7334919;19;153659;-15
2022/08/31 14:05:38;;;;;;;14.40;5.55;;;;;;;;;;7330520;19;161967;-15
2022/08/31 14:08:23;;;;;;;15.75;5.65;;;;;;;;;;7329854;19;162611;-15
2022/08/31 14:10:55;;;;;;;10.40;5.13;;;;;;;;;;7331083;19;154360;-15
2022/08/31 14:13:26;;;;;;;7.20;4.82;;;;;;;;;;7330968;19;153737;-15
2022/08/31 14:16:01;;;;;;;11.32;5.50;;;;;;;;;;7333337;19;161912;-14
2022/08/31 14:18:38;;;;;;;8.40;4.93;;;;;;;;;;7330308;19;162329;-14
2022/08/31 14:21:20;;;;;;;6.85;5.22;;;;;;;;;;7330895;19;154124;-14
2022/08/31 14:23:59;;;;;;;7.80;4.80;;;;;;;;;;7330680;19;153494;-14
2022/08/31 14:26:35;;;;;;;13.18;4.88;;;;;;;;;;7330390;19;161835;-15
2022/08/31 14:29:11;;;;;;;13.30;5.78;;;;;;;;;;7327694;19;162297;-15
2022/08/31 14:31:47;;;;;;;14.55;5.00;;;;;;;;;;7330341;19;153994;-15
2022/08/31 14:34:22;;;;;;;13.18;5.40;;;;;;;;;;7334570;19;153618;-15
2022/08/31 14:36:58;;;;;;;12.68;5.07;;;;;;;;;;7327644;19;162067;-15
2022/08/31 14:39:33;;;;;;;14.02;5.28;;;;;;;;;;7329457;19;162641;-15
2022/08/31 14:42:08;;;;;;;13.63;6.45;;;;;;;;;;7328550;19;154377;-14
2022/08/31 14:44:41;;;;;;;13.40;5.85;;;;;;;;;;7329765;19;153598;-15
2022/08/31 14:47:13;;;;;;;16.27;6.40;;;;;;;;;;7329198;19;162029;-15
2022/08/31 14:49:44;;;;;;;10.52;5.00;;;;;;;;;;7329375;19;162085;-15
2022/08/31 14:52:16;;;;;;;13.43;5.72;;;;;;;;;;7329431;19;154365;-15
2022/08/31 14:54:49;;;;;;;14.25;5.70;;;;;;;;;;7329448;19;153602;-14
2022/08/31 14:57:26;;;;;;;12.93;5.35;;;;;;;;;;7326934;19;162077;-14
2022/08/31 15:00:01;;;;;;;12.98;5.70;;;;;;;;;;7328952;19;162332;-14
2022/08/31 15:02:34;;;;;;;14.52;5.80;;;;;;;;;;7329413;19;154024;-16
2022/08/31 15:05:08;;;;;;;10.45;6.07;;;;;;;;;;7329179;19;153756;-15
2022/08/31 15:07:43;;;;;;;9.55;4.97;;;;;;;;;;7328685;19;162100;-15
2022/08/31 15:10:17;;;;;;;10.88;5.43;;;;;;;;;;7328711;19;162559;-15
2022/08/31 15:12:49;;;;;;;13.70;5.15;;;;;;;;;;7329575;19;154198;-15
2022/08/31 15:15:23;;;;;;;9.80;5.40;;;;;;;;;;7328998;19;153819;-15
2022/08/31 15:17:59;;;;;;;11.45;5.85;;;;;;;;;;7325717;19;162519;-15
2022/08/31 15:20:31;;;;;;;9.35;5.18;;;;;;;;;;7328689;19;162833;-14
2022/08/31 15:23:02;;;;;;;14.95;5.60;;;;;;;;;;7328963;19;154040;-15
2022/08/31 15:25:38;;;;;;;11.38;5.63;;;;;;;;;;7328624;19;153576;-15
2022/08/31 15:28:10;;;;;;;7.53;4.82;;;;;;;;;;7327952;19;161798;-14
2022/08/31 15:30:41;;;;;;;17.33;5.90;;;;;;;;;;7328619;19;162608;-15
2022/08/31 15:33:12;;;;;;;10.20;6.22;;;;;;;;;;7328927;19;154024;-15
2022/08/31 15:35:43;;;;;;;7.90;4.60;;;;;;;;;;7328815;19;153521;-15
2022/08/31 15:38:14;;;;;;;9.90;5.95;;;;;;;;;;7324634;19;161866;-15
2022/08/31 15:40:48;;;;;;;15.55;6.00;;;;;;;;;;7334162;19;162454;-15